sensor_id;sensor_type;location;lat;lon;timestamp;P1;durP1;ratioP1;P2;durP2;ratioP2
4051;SDS011;2040;50.924;11.604;2024-03-23T00:53:29;15.37;;;8.83;;
4051;SDS011;2040;50.924;11.604;2024-03-23T00:55:55;15.40;;;9.23;;
4051;SDS011;2040;50.924;11.604;2024-03-23T00:58:20;17.10;;;9.83;;
4051;SDS011;2040;50.924;11.604;2024-03-23T01:00:46;26.80;;;9.70;;
4051;SDS011;2040;50.924;11.604;2024-03-23T01:03:13;23.10;;;9.90;;
4051;SDS011;2040;50.924;11.604;2024-03-23T01:05:39;15.30;;;8.87;;
4051;SDS011;2040;50.924;11.604;2024-03-23T01:08:05;17.93;;;8.97;;
4051;SDS011;2040;50.924;11.604;2024-03-23T01:10:30;20.53;;;9.20;;
4051;SDS011;2040;50.924;11.604;2024-03-23T01:12:56;19.17;;;10.23;;
4051;SDS011;2040;50.924;11.604;2024-03-23T01:15:21;21.80;;;10.87;;
4051;SDS011;2040;50.924;11.604;2024-03-23T01:17:47;23.20;;;9.77;;
4051;SDS011;2040;50.924;11.604;2024-03-23T01:20:12;19.37;;;9.13;;
4051;SDS011;2040;50.924;11.604;2024-03-23T01:22:38;22.70;;;9.33;;
4051;SDS011;2040;50.924;11.604;2024-03-23T01:25:04;17.53;;;9.60;;
4051;SDS011;2040;50.924;11.604;2024-03-23T01:27:29;18.17;;;10.13;;
4051;SDS011;2040;50.924;11.604;2024-03-23T01:29:55;19.40;;;9.47;;
4051;SDS011;2040;50.924;11.604;2024-03-23T01:32:21;17.40;;;9.60;;
4051;SDS011;2040;50.924;11.604;2024-03-23T01:34:46;20.17;;;9.40;;
4051;SDS011;2040;50.924;11.604;2024-03-23T01:37:12;19.03;;;9.70;;
4051;SDS011;2040;50.924;11.604;2024-03-23T01:39:37;22.10;;;11.07;;
4051;SDS011;2040;50.924;11.604;2024-03-23T01:42:03;19.47;;;10.77;;
4051;SDS011;2040;50.924;11.604;2024-03-23T01:44:29;21.53;;;9.77;;
4051;SDS011;2040;50.924;11.604;2024-03-23T01:46:54;20.50;;;10.07;;
4051;SDS011;2040;50.924;11.604;2024-03-23T01:49:20;16.30;;;9.73;;
4051;SDS011;2040;50.924;11.604;2024-03-23T01:51:45;17.97;;;9.13;;
4051;SDS011;2040;50.924;11.604;2024-03-23T01:54:11;25.30;;;9.10;;
4051;SDS011;2040;50.924;11.604;2024-03-23T01:56:37;16.83;;;9.13;;
4051;SDS011;2040;50.924;11.604;2024-03-23T01:59:03;15.90;;;8.90;;
4051;SDS011;2040;50.924;11.604;2024-03-23T02:01:30;23.07;;;12.13;;
4051;SDS011;2040;50.924;11.604;2024-03-23T02:03:56;26.20;;;11.30;;
4051;SDS011;2040;50.924;11.604;2024-03-23T02:06:22;19.83;;;10.87;;
4051;SDS011;2040;50.924;11.604;2024-03-23T02:08:48;25.93;;;10.40;;
4051;SDS011;2040;50.924;11.604;2024-03-23T02:11:14;19.73;;;10.30;;
4051;SDS011;2040;50.924;11.604;2024-03-23T02:13:40;21.83;;;10.60;;
4051;SDS011;2040;50.924;11.604;2024-03-23T02:16:05;18.60;;;11.23;;
4051;SDS011;2040;50.924;11.604;2024-03-23T02:18:31;19.97;;;10.90;;
4051;SDS011;2040;50.924;11.604;2024-03-23T02:20:57;26.67;;;11.90;;
4051;SDS011;2040;50.924;11.604;2024-03-23T02:23:23;19.37;;;10.20;;
4051;SDS011;2040;50.924;11.604;2024-03-23T02:25:49;22.33;;;10.63;;
4051;SDS011;2040;50.924;11.604;2024-03-23T02:28:15;21.47;;;10.67;;
4051;SDS011;2040;50.924;11.604;2024-03-23T02:30:41;23.17;;;9.90;;
4051;SDS011;2040;50.924;11.604;2024-03-23T02:33:07;23.57;;;9.67;;
4051;SDS011;2040;50.924;11.604;2024-03-23T02:35:33;16.37;;;8.50;;
4051;SDS011;2040;50.924;11.604;2024-03-23T02:37:58;14.07;;;8.00;;
4051;SDS011;2040;50.924;11.604;2024-03-23T02:40:24;20.60;;;8.83;;
4051;SDS011;2040;50.924;11.604;2024-03-23T02:42:50;18.07;;;8.70;;
4051;SDS011;2040;50.924;11.604;2024-03-23T02:45:15;17.37;;;8.67;;
4051;SDS011;2040;50.924;11.604;2024-03-23T02:47:41;25.43;;;10.43;;
4051;SDS011;2040;50.924;11.604;2024-03-23T02:50:07;17.97;;;9.37;;
4051;SDS011;2040;50.924;11.604;2024-03-23T02:52:33;16.53;;;8.43;;
4051;SDS011;2040;50.924;11.604;2024-03-23T02:54:59;13.53;;;7.60;;
4051;SDS011;2040;50.924;11.604;2024-03-23T02:57:26;16.70;;;7.73;;
4051;SDS011;2040;50.924;11.604;2024-03-23T02:59:52;16.70;;;8.77;;
4051;SDS011;2040;50.924;11.604;2024-03-23T03:02:18;17.87;;;9.70;;
4051;SDS011;2040;50.924;11.604;2024-03-23T03:04:43;15.03;;;8.30;;
4051;SDS011;2040;50.924;11.604;2024-03-23T03:07:09;17.43;;;8.50;;
4051;SDS011;2040;50.924;11.604;2024-03-23T03:09:34;17.20;;;8.93;;
4051;SDS011;2040;50.924;11.604;2024-03-23T03:12:03;15.33;;;8.23;;
4051;SDS011;2040;50.924;11.604;2024-03-23T03:14:29;19.90;;;9.60;;
4051;SDS011;2040;50.924;11.604;2024-03-23T03:16:54;17.27;;;9.20;;
4051;SDS011;2040;50.924;11.604;2024-03-23T03:19:20;21.90;;;10.00;;
4051;SDS011;2040;50.924;11.604;2024-03-23T03:25:08;19.20;;;9.70;;
4051;SDS011;2040;50.924;11.604;2024-03-23T03:27:33;19.27;;;9.93;;
4051;SDS011;2040;50.924;11.604;2024-03-23T03:29:59;17.70;;;9.90;;
4051;SDS011;2040;50.924;11.604;2024-03-23T03:32:27;25.00;;;8.97;;
4051;SDS011;2040;50.924;11.604;2024-03-23T03:34:57;21.77;;;9.77;;
4051;SDS011;2040;50.924;11.604;2024-03-23T03:37:22;19.50;;;9.80;;
4051;SDS011;2040;50.924;11.604;2024-03-23T03:39:48;16.13;;;9.23;;
4051;SDS011;2040;50.924;11.604;2024-03-23T03:42:14;22.87;;;11.47;;
4051;SDS011;2040;50.924;11.604;2024-03-23T03:44:39;22.27;;;11.20;;
4051;SDS011;2040;50.924;11.604;2024-03-23T03:47:05;40.03;;;12.73;;
4051;SDS011;2040;50.924;11.604;2024-03-23T03:49:31;29.40;;;12.10;;
4051;SDS011;2040;50.924;11.604;2024-03-23T03:51:57;25.53;;;12.90;;
4051;SDS011;2040;50.924;11.604;2024-03-23T03:54:22;30.80;;;14.43;;
4051;SDS011;2040;50.924;11.604;2024-03-23T03:56:48;29.73;;;14.63;;
4051;SDS011;2040;50.924;11.604;2024-03-23T03:59:13;25.60;;;12.10;;
4051;SDS011;2040;50.924;11.604;2024-03-23T04:01:40;36.53;;;14.13;;
4051;SDS011;2040;50.924;11.604;2024-03-23T04:04:05;28.97;;;14.00;;
4051;SDS011;2040;50.924;11.604;2024-03-23T04:06:31;37.90;;;15.63;;
4051;SDS011;2040;50.924;11.604;2024-03-23T04:08:58;31.97;;;14.13;;
4051;SDS011;2040;50.924;11.604;2024-03-23T04:11:23;28.20;;;11.63;;
4051;SDS011;2040;50.924;11.604;2024-03-23T04:13:49;26.87;;;12.20;;
4051;SDS011;2040;50.924;11.604;2024-03-23T04:16:24;27.60;;;13.53;;
4051;SDS011;2040;50.924;11.604;2024-03-23T04:19:00;40.20;;;16.77;;
4051;SDS011;2040;50.924;11.604;2024-03-23T04:21:25;39.00;;;15.70;;
4051;SDS011;2040;50.924;11.604;2024-03-23T04:23:51;50.67;;;19.80;;
4051;SDS011;2040;50.924;11.604;2024-03-23T04:26:17;45.57;;;16.67;;
4051;SDS011;2040;50.924;11.604;2024-03-23T04:28:42;29.07;;;14.30;;
4051;SDS011;2040;50.924;11.604;2024-03-23T04:31:08;33.30;;;15.20;;
4051;SDS011;2040;50.924;11.604;2024-03-23T04:33:34;32.27;;;13.57;;
4051;SDS011;2040;50.924;11.604;2024-03-23T04:35:59;26.90;;;13.73;;
4051;SDS011;2040;50.924;11.604;2024-03-23T04:38:25;37.47;;;15.80;;
4051;SDS011;2040;50.924;11.604;2024-03-23T04:40:57;28.77;;;13.77;;
4051;SDS011;2040;50.924;11.604;2024-03-23T04:43:23;28.13;;;12.73;;
4051;SDS011;2040;50.924;11.604;2024-03-23T04:45:49;31.17;;;14.70;;
4051;SDS011;2040;50.924;11.604;2024-03-23T04:48:14;31.13;;;14.37;;
4051;SDS011;2040;50.924;11.604;2024-03-23T04:50:40;25.77;;;12.60;;
4051;SDS011;2040;50.924;11.604;2024-03-23T04:53:06;23.67;;;12.77;;
4051;SDS011;2040;50.924;11.604;2024-03-23T04:55:32;24.53;;;11.50;;
4051;SDS011;2040;50.924;11.604;2024-03-23T04:57:57;26.93;;;12.90;;
4051;SDS011;2040;50.924;11.604;2024-03-23T05:00:23;29.97;;;13.70;;
4051;SDS011;2040;50.924;11.604;2024-03-23T05:02:48;29.97;;;14.70;;
4051;SDS011;2040;50.924;11.604;2024-03-23T05:05:14;33.40;;;13.87;;
4051;SDS011;2040;50.924;11.604;2024-03-23T05:07:39;35.27;;;13.43;;
4051;SDS011;2040;50.924;11.604;2024-03-23T05:10:06;29.37;;;14.40;;
4051;SDS011;2040;50.924;11.604;2024-03-23T05:12:36;40.97;;;16.03;;
4051;SDS011;2040;50.924;11.604;2024-03-23T05:15:03;43.47;;;17.80;;
4051;SDS011;2040;50.924;11.604;2024-03-23T05:17:30;41.53;;;15.80;;
4051;SDS011;2040;50.924;11.604;2024-03-23T05:19:56;27.40;;;12.93;;
4051;SDS011;2040;50.924;11.604;2024-03-23T05:22:22;33.43;;;13.70;;
4051;SDS011;2040;50.924;11.604;2024-03-23T05:24:48;25.10;;;11.87;;
4051;SDS011;2040;50.924;11.604;2024-03-23T05:27:15;30.67;;;12.70;;
4051;SDS011;2040;50.924;11.604;2024-03-23T05:29:41;35.87;;;14.37;;
4051;SDS011;2040;50.924;11.604;2024-03-23T05:32:06;37.77;;;14.70;;
4051;SDS011;2040;50.924;11.604;2024-03-23T05:34:32;45.33;;;15.60;;
4051;SDS011;2040;50.924;11.604;2024-03-23T05:36:57;36.70;;;15.20;;
4051;SDS011;2040;50.924;11.604;2024-03-23T05:39:23;37.47;;;15.13;;
4051;SDS011;2040;50.924;11.604;2024-03-23T05:41:49;38.13;;;15.00;;
4051;SDS011;2040;50.924;11.604;2024-03-23T05:44:14;36.27;;;14.50;;
4051;SDS011;2040;50.924;11.604;2024-03-23T05:46:41;41.73;;;15.07;;
4051;SDS011;2040;50.924;11.604;2024-03-23T05:49:06;37.90;;;15.97;;
4051;SDS011;2040;50.924;11.604;2024-03-23T05:51:32;41.60;;;14.70;;
4051;SDS011;2040;50.924;11.604;2024-03-23T05:53:58;40.63;;;13.47;;
4051;SDS011;2040;50.924;11.604;2024-03-23T05:56:23;25.17;;;11.00;;
4051;SDS011;2040;50.924;11.604;2024-03-23T05:58:51;24.43;;;12.07;;
4051;SDS011;2040;50.924;11.604;2024-03-23T06:01:16;28.20;;;11.63;;
4051;SDS011;2040;50.924;11.604;2024-03-23T06:03:42;29.93;;;12.33;;
4051;SDS011;2040;50.924;11.604;2024-03-23T06:06:08;32.60;;;13.20;;
4051;SDS011;2040;50.924;11.604;2024-03-23T06:08:36;28.80;;;11.43;;
4051;SDS011;2040;50.924;11.604;2024-03-23T06:11:02;26.67;;;12.50;;
4051;SDS011;2040;50.924;11.604;2024-03-23T06:13:28;33.77;;;12.40;;
4051;SDS011;2040;50.924;11.604;2024-03-23T06:15:55;27.90;;;12.77;;
4051;SDS011;2040;50.924;11.604;2024-03-23T06:18:21;35.60;;;14.87;;
4051;SDS011;2040;50.924;11.604;2024-03-23T06:20:46;34.93;;;14.57;;
4051;SDS011;2040;50.924;11.604;2024-03-23T06:23:12;42.40;;;15.57;;
4051;SDS011;2040;50.924;11.604;2024-03-23T06:25:38;37.20;;;14.97;;
4051;SDS011;2040;50.924;11.604;2024-03-23T06:28:04;40.93;;;17.10;;
4051;SDS011;2040;50.924;11.604;2024-03-23T06:30:29;37.57;;;16.03;;
4051;SDS011;2040;50.924;11.604;2024-03-23T06:32:56;35.20;;;16.10;;
4051;SDS011;2040;50.924;11.604;2024-03-23T06:35:22;37.53;;;16.67;;
4051;SDS011;2040;50.924;11.604;2024-03-23T06:37:48;27.37;;;15.07;;
4051;SDS011;2040;50.924;11.604;2024-03-23T06:40:14;29.07;;;13.50;;
4051;SDS011;2040;50.924;11.604;2024-03-23T06:42:39;35.20;;;16.00;;
4051;SDS011;2040;50.924;11.604;2024-03-23T06:45:05;35.10;;;16.20;;
4051;SDS011;2040;50.924;11.604;2024-03-23T06:47:31;31.80;;;15.07;;
4051;SDS011;2040;50.924;11.604;2024-03-23T06:49:59;31.87;;;14.57;;
4051;SDS011;2040;50.924;11.604;2024-03-23T06:52:26;36.10;;;16.17;;
4051;SDS011;2040;50.924;11.604;2024-03-23T06:54:53;25.00;;;13.67;;
4051;SDS011;2040;50.924;11.604;2024-03-23T06:57:18;32.63;;;14.20;;
4051;SDS011;2040;50.924;11.604;2024-03-23T06:59:44;26.27;;;14.50;;
4051;SDS011;2040;50.924;11.604;2024-03-23T07:02:09;31.50;;;14.10;;
4051;SDS011;2040;50.924;11.604;2024-03-23T07:04:35;31.63;;;14.57;;
4051;SDS011;2040;50.924;11.604;2024-03-23T07:07:01;33.47;;;14.70;;
4051;SDS011;2040;50.924;11.604;2024-03-23T07:09:30;37.80;;;16.60;;
4051;SDS011;2040;50.924;11.604;2024-03-23T07:11:56;41.03;;;17.07;;
4051;SDS011;2040;50.924;11.604;2024-03-23T07:14:22;44.90;;;17.70;;
4051;SDS011;2040;50.924;11.604;2024-03-23T07:16:48;39.07;;;17.60;;
4051;SDS011;2040;50.924;11.604;2024-03-23T07:19:14;51.40;;;19.60;;
4051;SDS011;2040;50.924;11.604;2024-03-23T07:21:41;42.80;;;18.00;;
4051;SDS011;2040;50.924;11.604;2024-03-23T07:24:10;31.40;;;11.40;;
4051;SDS011;2040;50.924;11.604;2024-03-23T07:26:36;8.10;;;4.03;;
4051;SDS011;2040;50.924;11.604;2024-03-23T07:29:03;8.40;;;4.07;;
4051;SDS011;2040;50.924;11.604;2024-03-23T07:31:29;8.73;;;4.27;;
4051;SDS011;2040;50.924;11.604;2024-03-23T07:33:54;10.03;;;4.60;;
4051;SDS011;2040;50.924;11.604;2024-03-23T07:36:20;5.00;;;2.90;;
4051;SDS011;2040;50.924;11.604;2024-03-23T07:38:46;3.63;;;1.80;;
4051;SDS011;2040;50.924;11.604;2024-03-23T07:41:12;2.63;;;1.43;;
4051;SDS011;2040;50.924;11.604;2024-03-23T07:43:46;2.87;;;1.00;;
4051;SDS011;2040;50.924;11.604;2024-03-23T07:46:12;5.33;;;1.20;;
4051;SDS011;2040;50.924;11.604;2024-03-23T07:48:39;0.80;;;0.70;;
4051;SDS011;2040;50.924;11.604;2024-03-23T07:51:15;0.63;;;0.60;;
4051;SDS011;2040;50.924;11.604;2024-03-23T07:53:50;0.60;;;0.60;;
4051;SDS011;2040;50.924;11.604;2024-03-23T07:56:17;1.77;;;0.77;;
4051;SDS011;2040;50.924;11.604;2024-03-23T07:58:46;0.73;;;0.70;;
4051;SDS011;2040;50.924;11.604;2024-03-23T08:01:13;4.43;;;0.90;;
4051;SDS011;2040;50.924;11.604;2024-03-23T08:03:40;1.33;;;0.63;;
4051;SDS011;2040;50.924;11.604;2024-03-23T08:06:11;0.90;;;0.60;;
4051;SDS011;2040;50.924;11.604;2024-03-23T08:08:40;0.53;;;0.53;;
4051;SDS011;2040;50.924;11.604;2024-03-23T08:11:06;0.60;;;0.60;;
4051;SDS011;2040;50.924;11.604;2024-03-23T08:13:32;0.60;;;0.60;;
4051;SDS011;2040;50.924;11.604;2024-03-23T08:15:58;0.60;;;0.53;;
4051;SDS011;2040;50.924;11.604;2024-03-23T08:18:24;1.17;;;0.70;;
4051;SDS011;2040;50.924;11.604;2024-03-23T08:21:00;1.53;;;0.60;;
4051;SDS011;2040;50.924;11.604;2024-03-23T08:23:31;1.00;;;0.90;;
4051;SDS011;2040;50.924;11.604;2024-03-23T08:26:05;0.57;;;0.57;;
4051;SDS011;2040;50.924;11.604;2024-03-23T08:28:31;1.03;;;0.77;;
4051;SDS011;2040;50.924;11.604;2024-03-23T08:31:00;0.60;;;0.60;;
4051;SDS011;2040;50.924;11.604;2024-03-23T08:33:28;0.70;;;0.70;;
4051;SDS011;2040;50.924;11.604;2024-03-23T08:38:23;3.03;;;1.27;;
4051;SDS011;2040;50.924;11.604;2024-03-23T08:41:02;0.60;;;0.60;;
4051;SDS011;2040;50.924;11.604;2024-03-23T08:43:29;0.70;;;0.70;;
4051;SDS011;2040;50.924;11.604;2024-03-23T08:46:05;7.20;;;1.30;;
4051;SDS011;2040;50.924;11.604;2024-03-23T08:48:32;1.47;;;0.60;;
4051;SDS011;2040;50.924;11.604;2024-03-23T08:51:05;0.90;;;0.70;;
4051;SDS011;2040;50.924;11.604;2024-03-23T08:53:32;2.97;;;0.70;;
4051;SDS011;2040;50.924;11.604;2024-03-23T08:55:58;0.50;;;0.50;;
4051;SDS011;2040;50.924;11.604;2024-03-23T08:58:25;0.60;;;0.60;;
4051;SDS011;2040;50.924;11.604;2024-03-23T09:00:52;0.53;;;0.53;;
4051;SDS011;2040;50.924;11.604;2024-03-23T09:03:21;0.50;;;0.50;;
4051;SDS011;2040;50.924;11.604;2024-03-23T09:05:50;0.50;;;0.43;;
4051;SDS011;2040;50.924;11.604;2024-03-23T09:08:16;0.97;;;0.60;;
4051;SDS011;2040;50.924;11.604;2024-03-23T09:10:42;0.70;;;0.70;;
4051;SDS011;2040;50.924;11.604;2024-03-23T09:13:08;0.52;;;0.52;;
4051;SDS011;2040;50.924;11.604;2024-03-23T09:15:34;0.50;;;0.50;;
4051;SDS011;2040;50.924;11.604;2024-03-23T09:18:01;0.60;;;0.60;;
4051;SDS011;2040;50.924;11.604;2024-03-23T09:20:27;0.40;;;0.40;;
4051;SDS011;2040;50.924;11.604;2024-03-23T09:22:53;0.93;;;0.53;;
4051;SDS011;2040;50.924;11.604;2024-03-23T09:25:18;0.50;;;0.50;;
4051;SDS011;2040;50.924;11.604;2024-03-23T09:27:47;0.50;;;0.50;;
4051;SDS011;2040;50.924;11.604;2024-03-23T09:30:13;0.50;;;0.50;;
4051;SDS011;2040;50.924;11.604;2024-03-23T09:32:39;0.50;;;0.50;;
4051;SDS011;2040;50.924;11.604;2024-03-23T09:35:08;0.53;;;0.53;;
4051;SDS011;2040;50.924;11.604;2024-03-23T09:37:33;0.60;;;0.60;;
4051;SDS011;2040;50.924;11.604;2024-03-23T09:39:59;0.43;;;0.43;;
4051;SDS011;2040;50.924;11.604;2024-03-23T09:42:24;0.70;;;0.57;;
4051;SDS011;2040;50.924;11.604;2024-03-23T09:44:50;0.50;;;0.50;;
4051;SDS011;2040;50.924;11.604;2024-03-23T09:47:16;0.70;;;0.60;;
4051;SDS011;2040;50.924;11.604;2024-03-23T09:49:42;1.00;;;0.70;;
4051;SDS011;2040;50.924;11.604;2024-03-23T09:52:08;0.70;;;0.60;;
4051;SDS011;2040;50.924;11.604;2024-03-23T09:54:34;0.60;;;0.60;;
4051;SDS011;2040;50.924;11.604;2024-03-23T09:57:00;0.50;;;0.50;;
4051;SDS011;2040;50.924;11.604;2024-03-23T09:59:26;2.87;;;0.60;;
4051;SDS011;2040;50.924;11.604;2024-03-23T10:01:52;0.60;;;0.60;;
4051;SDS011;2040;50.924;11.604;2024-03-23T10:07:14;0.80;;;0.70;;
4051;SDS011;2040;50.924;11.604;2024-03-23T10:09:42;0.80;;;0.60;;
4051;SDS011;2040;50.924;11.604;2024-03-23T10:12:11;2.00;;;0.77;;
4051;SDS011;2040;50.924;11.604;2024-03-23T10:14:41;2.10;;;0.97;;
4051;SDS011;2040;50.924;11.604;2024-03-23T10:17:19;0.70;;;0.70;;
4051;SDS011;2040;50.924;11.604;2024-03-23T10:19:49;1.03;;;0.80;;
4051;SDS011;2040;50.924;11.604;2024-03-23T10:22:19;1.37;;;1.00;;
4051;SDS011;2040;50.924;11.604;2024-03-23T10:24:46;0.93;;;0.90;;
4051;SDS011;2040;50.924;11.604;2024-03-23T10:27:15;4.47;;;0.87;;
4051;SDS011;2040;50.924;11.604;2024-03-23T10:29:48;0.70;;;0.70;;
4051;SDS011;2040;50.924;11.604;2024-03-23T10:32:15;0.70;;;0.70;;
4051;SDS011;2040;50.924;11.604;2024-03-23T10:34:41;2.83;;;0.83;;
4051;SDS011;2040;50.924;11.604;2024-03-23T10:37:07;4.73;;;0.83;;
4051;SDS011;2040;50.924;11.604;2024-03-23T10:39:34;0.90;;;0.77;;
4051;SDS011;2040;50.924;11.604;2024-03-23T10:42:04;1.03;;;0.90;;
4051;SDS011;2040;50.924;11.604;2024-03-23T10:44:37;7.47;;;1.17;;
4051;SDS011;2040;50.924;11.604;2024-03-23T10:47:03;6.40;;;1.47;;
4051;SDS011;2040;50.924;11.604;2024-03-23T10:49:30;5.30;;;1.03;;
4051;SDS011;2040;50.924;11.604;2024-03-23T10:51:57;1.33;;;1.07;;
4051;SDS011;2040;50.924;11.604;2024-03-23T10:54:24;20.70;;;1.67;;
4051;SDS011;2040;50.924;11.604;2024-03-23T10:57:02;3.17;;;1.93;;
4051;SDS011;2040;50.924;11.604;2024-03-23T10:59:31;2.47;;;1.30;;
4051;SDS011;2040;50.924;11.604;2024-03-23T11:01:58;2.80;;;1.30;;
4051;SDS011;2040;50.924;11.604;2024-03-23T11:04:34;17.47;;;1.60;;
4051;SDS011;2040;50.924;11.604;2024-03-23T11:07:00;2.20;;;0.97;;
4051;SDS011;2040;50.924;11.604;2024-03-23T11:12:18;4.73;;;1.37;;
4051;SDS011;2040;50.924;11.604;2024-03-23T11:17:26;1.93;;;1.63;;
4051;SDS011;2040;50.924;11.604;2024-03-23T11:19:53;9.33;;;2.17;;
4051;SDS011;2040;50.924;11.604;2024-03-23T11:25:14;4.53;;;1.60;;
4051;SDS011;2040;50.924;11.604;2024-03-23T11:27:41;9.17;;;2.07;;
4051;SDS011;2040;50.924;11.604;2024-03-23T11:30:11;6.60;;;2.40;;
4051;SDS011;2040;50.924;11.604;2024-03-23T11:32:37;7.73;;;2.07;;
4051;SDS011;2040;50.924;11.604;2024-03-23T11:35:03;5.90;;;2.00;;
4051;SDS011;2040;50.924;11.604;2024-03-23T11:37:28;5.07;;;2.07;;
4051;SDS011;2040;50.924;11.604;2024-03-23T11:39:54;5.10;;;2.13;;
4051;SDS011;2040;50.924;11.604;2024-03-23T11:42:19;3.67;;;1.70;;
4051;SDS011;2040;50.924;11.604;2024-03-23T11:44:46;3.90;;;1.63;;
4051;SDS011;2040;50.924;11.604;2024-03-23T11:47:12;4.00;;;1.87;;
4051;SDS011;2040;50.924;11.604;2024-03-23T11:49:38;4.27;;;2.00;;
4051;SDS011;2040;50.924;11.604;2024-03-23T11:52:06;5.70;;;1.90;;
4051;SDS011;2040;50.924;11.604;2024-03-23T11:54:31;7.93;;;2.10;;
4051;SDS011;2040;50.924;11.604;2024-03-23T11:57:04;3.60;;;2.07;;
4051;SDS011;2040;50.924;11.604;2024-03-23T11:59:34;5.93;;;1.83;;
4051;SDS011;2040;50.924;11.604;2024-03-23T12:02:07;5.33;;;2.40;;
4051;SDS011;2040;50.924;11.604;2024-03-23T12:04:33;5.93;;;2.27;;
4051;SDS011;2040;50.924;11.604;2024-03-23T12:07:11;3.53;;;2.00;;
4051;SDS011;2040;50.924;11.604;2024-03-23T12:09:39;7.10;;;2.33;;
4051;SDS011;2040;50.924;11.604;2024-03-23T12:12:06;5.33;;;2.53;;
4051;SDS011;2040;50.924;11.604;2024-03-23T12:14:38;5.47;;;2.10;;
4051;SDS011;2040;50.924;11.604;2024-03-23T12:17:07;3.13;;;2.33;;
4051;SDS011;2040;50.924;11.604;2024-03-23T12:19:37;9.50;;;4.20;;
4051;SDS011;2040;50.924;11.604;2024-03-23T12:22:03;7.50;;;3.97;;
4051;SDS011;2040;50.924;11.604;2024-03-23T12:24:30;7.03;;;2.87;;
4051;SDS011;2040;50.924;11.604;2024-03-23T12:26:59;11.43;;;3.07;;
4051;SDS011;2040;50.924;11.604;2024-03-23T12:29:26;3.77;;;2.50;;
4051;SDS011;2040;50.924;11.604;2024-03-23T12:31:56;3.23;;;1.90;;
4051;SDS011;2040;50.924;11.604;2024-03-23T12:34:24;6.70;;;3.20;;
4051;SDS011;2040;50.924;11.604;2024-03-23T12:36:49;3.33;;;2.43;;
4051;SDS011;2040;50.924;11.604;2024-03-23T12:39:15;5.57;;;3.23;;
4051;SDS011;2040;50.924;11.604;2024-03-23T12:41:40;5.30;;;3.50;;
4051;SDS011;2040;50.924;11.604;2024-03-23T12:44:06;10.57;;;2.90;;
4051;SDS011;2040;50.924;11.604;2024-03-23T12:46:33;6.47;;;3.10;;
4051;SDS011;2040;50.924;11.604;2024-03-23T12:48:59;12.40;;;2.70;;
4051;SDS011;2040;50.924;11.604;2024-03-23T12:51:24;4.90;;;2.47;;
4051;SDS011;2040;50.924;11.604;2024-03-23T12:53:50;3.50;;;2.37;;
4051;SDS011;2040;50.924;11.604;2024-03-23T12:56:16;3.43;;;2.27;;
4051;SDS011;2040;50.924;11.604;2024-03-23T12:58:42;4.60;;;2.13;;
4051;SDS011;2040;50.924;11.604;2024-03-23T13:01:07;6.07;;;2.43;;
4051;SDS011;2040;50.924;11.604;2024-03-23T13:03:33;6.87;;;2.00;;
4051;SDS011;2040;50.924;11.604;2024-03-23T13:05:58;2.50;;;2.00;;
4051;SDS011;2040;50.924;11.604;2024-03-23T13:08:24;5.17;;;2.30;;
4051;SDS011;2040;50.924;11.604;2024-03-23T13:10:52;4.50;;;1.87;;
4051;SDS011;2040;50.924;11.604;2024-03-23T13:13:18;3.00;;;1.60;;
4051;SDS011;2040;50.924;11.604;2024-03-23T13:15:49;7.07;;;1.87;;
4051;SDS011;2040;50.924;11.604;2024-03-23T13:18:15;6.83;;;2.07;;
4051;SDS011;2040;50.924;11.604;2024-03-23T13:20:40;6.77;;;2.00;;
4051;SDS011;2040;50.924;11.604;2024-03-23T13:23:06;5.00;;;1.80;;
4051;SDS011;2040;50.924;11.604;2024-03-23T13:25:31;4.90;;;2.50;;
4051;SDS011;2040;50.924;11.604;2024-03-23T13:27:58;5.60;;;2.27;;
4051;SDS011;2040;50.924;11.604;2024-03-23T13:30:23;5.73;;;2.30;;
4051;SDS011;2040;50.924;11.604;2024-03-23T13:32:49;4.30;;;2.30;;
4051;SDS011;2040;50.924;11.604;2024-03-23T13:35:15;2.90;;;1.67;;
4051;SDS011;2040;50.924;11.604;2024-03-23T13:37:41;1.97;;;1.40;;
4051;SDS011;2040;50.924;11.604;2024-03-23T13:40:07;2.70;;;2.10;;
4051;SDS011;2040;50.924;11.604;2024-03-23T13:42:33;2.20;;;1.80;;
4051;SDS011;2040;50.924;11.604;2024-03-23T13:44:58;4.00;;;1.73;;
4051;SDS011;2040;50.924;11.604;2024-03-23T13:47:24;7.00;;;2.47;;
4051;SDS011;2040;50.924;11.604;2024-03-23T13:49:49;3.13;;;1.57;;
4051;SDS011;2040;50.924;11.604;2024-03-23T13:52:15;3.43;;;1.83;;
4051;SDS011;2040;50.924;11.604;2024-03-23T13:54:41;2.70;;;2.03;;
4051;SDS011;2040;50.924;11.604;2024-03-23T13:57:11;4.13;;;1.50;;
4051;SDS011;2040;50.924;11.604;2024-03-23T13:59:38;5.43;;;2.07;;
4051;SDS011;2040;50.924;11.604;2024-03-23T14:02:04;2.23;;;1.50;;
4051;SDS011;2040;50.924;11.604;2024-03-23T14:04:30;2.50;;;1.33;;
4051;SDS011;2040;50.924;11.604;2024-03-23T14:06:56;4.57;;;1.90;;
4051;SDS011;2040;50.924;11.604;2024-03-23T14:09:21;2.70;;;1.73;;
4051;SDS011;2040;50.924;11.604;2024-03-23T14:11:50;1.37;;;1.00;;
4051;SDS011;2040;50.924;11.604;2024-03-23T14:14:16;3.03;;;1.53;;
4051;SDS011;2040;50.924;11.604;2024-03-23T14:16:42;5.63;;;1.60;;
4051;SDS011;2040;50.924;11.604;2024-03-23T14:19:08;1.23;;;1.13;;
4051;SDS011;2040;50.924;11.604;2024-03-23T14:21:33;5.23;;;1.30;;
4051;SDS011;2040;50.924;11.604;2024-03-23T14:23:59;2.00;;;1.70;;
4051;SDS011;2040;50.924;11.604;2024-03-23T14:26:26;2.43;;;1.20;;
4051;SDS011;2040;50.924;11.604;2024-03-23T14:28:51;1.77;;;1.17;;
4051;SDS011;2040;50.924;11.604;2024-03-23T14:31:17;1.50;;;1.40;;
4051;SDS011;2040;50.924;11.604;2024-03-23T14:33:43;4.70;;;2.10;;
4051;SDS011;2040;50.924;11.604;2024-03-23T14:36:14;3.33;;;1.60;;
4051;SDS011;2040;50.924;11.604;2024-03-23T14:38:41;2.60;;;2.00;;
4051;SDS011;2040;50.924;11.604;2024-03-23T14:41:07;2.73;;;1.40;;
4051;SDS011;2040;50.924;11.604;2024-03-23T14:43:33;9.03;;;1.43;;
4051;SDS011;2040;50.924;11.604;2024-03-23T14:46:05;6.20;;;1.77;;
4051;SDS011;2040;50.924;11.604;2024-03-23T14:48:42;1.80;;;1.40;;
4051;SDS011;2040;50.924;11.604;2024-03-23T14:51:09;1.87;;;1.60;;
4051;SDS011;2040;50.924;11.604;2024-03-23T14:53:35;3.80;;;1.43;;
4051;SDS011;2040;50.924;11.604;2024-03-23T14:56:03;4.50;;;2.00;;
4051;SDS011;2040;50.924;11.604;2024-03-23T14:58:29;6.23;;;1.97;;
4051;SDS011;2040;50.924;11.604;2024-03-23T15:01:04;5.17;;;1.93;;
4051;SDS011;2040;50.924;11.604;2024-03-23T15:03:34;3.40;;;2.40;;
4051;SDS011;2040;50.924;11.604;2024-03-23T15:06:04;4.30;;;2.40;;
4051;SDS011;2040;50.924;11.604;2024-03-23T15:08:30;2.37;;;2.03;;
4051;SDS011;2040;50.924;11.604;2024-03-23T15:10:59;3.27;;;1.40;;
4051;SDS011;2040;50.924;11.604;2024-03-23T15:13:28;4.47;;;1.67;;
4051;SDS011;2040;50.924;11.604;2024-03-23T15:15:54;3.50;;;1.47;;
4051;SDS011;2040;50.924;11.604;2024-03-23T15:18:19;1.90;;;1.60;;
4051;SDS011;2040;50.924;11.604;2024-03-23T15:20:57;2.60;;;1.40;;
4051;SDS011;2040;50.924;11.604;2024-03-23T15:23:27;2.53;;;1.53;;
4051;SDS011;2040;50.924;11.604;2024-03-23T15:25:53;2.77;;;1.73;;
4051;SDS011;2040;50.924;11.604;2024-03-23T15:28:26;2.10;;;1.43;;
4051;SDS011;2040;50.924;11.604;2024-03-23T15:31:02;4.27;;;2.20;;
4051;SDS011;2040;50.924;11.604;2024-03-23T15:33:31;3.10;;;1.70;;
4051;SDS011;2040;50.924;11.604;2024-03-23T15:36:00;4.27;;;1.80;;
4051;SDS011;2040;50.924;11.604;2024-03-23T15:38:31;7.97;;;2.40;;
4051;SDS011;2040;50.924;11.604;2024-03-23T15:40:57;2.40;;;1.73;;
4051;SDS011;2040;50.924;11.604;2024-03-23T15:43:22;5.50;;;1.90;;
4051;SDS011;2040;50.924;11.604;2024-03-23T15:45:55;3.07;;;1.90;;
4051;SDS011;2040;50.924;11.604;2024-03-23T15:48:25;2.80;;;2.17;;
4051;SDS011;2040;50.924;11.604;2024-03-23T15:50:55;12.60;;;2.30;;
4051;SDS011;2040;50.924;11.604;2024-03-23T15:53:22;3.20;;;2.10;;
4051;SDS011;2040;50.924;11.604;2024-03-23T15:55:59;1.20;;;1.00;;
4051;SDS011;2040;50.924;11.604;2024-03-23T15:58:26;3.27;;;1.73;;